sensor_id;sensor_type;location;lat;lon;timestamp;temperature;humidity
27413;DHT22;14871;52.702;5.230;2022-09-20T00:01:23;16.00;92.30
27413;DHT22;14871;52.702;5.230;2022-09-20T00:03:55;16.10;92.10
27413;DHT22;14871;52.702;5.230;2022-09-20T00:06:23;16.10;92.00
27413;DHT22;14871;52.702;5.230;2022-09-20T00:08:50;16.00;92.20
27413;DHT22;14871;52.702;5.230;2022-09-20T00:11:35;16.00;92.50
27413;DHT22;14871;52.702;5.230;2022-09-20T00:14:02;16.00;92.40
27413;DHT22;14871;52.702;5.230;2022-09-20T00:16:34;15.90;92.70
27413;DHT22;14871;52.702;5.230;2022-09-20T00:19:01;15.90;92.50
27413;DHT22;14871;52.702;5.230;2022-09-20T00:21:32;15.90;92.50
27413;DHT22;14871;52.702;5.230;2022-09-20T00:23:58;16.00;92.40
27413;DHT22;14871;52.702;5.230;2022-09-20T00:26:25;16.00;92.40
27413;DHT22;14871;52.702;5.230;2022-09-20T00:28:51;15.90;92.60
27413;DHT22;14871;52.702;5.230;2022-09-20T00:31:18;16.00;92.70
27413;DHT22;14871;52.702;5.230;2022-09-20T00:33:43;16.00;92.70
27413;DHT22;14871;52.702;5.230;2022-09-20T00:36:28;15.90;93.00
27413;DHT22;14871;52.702;5.230;2022-09-20T00:38:59;16.00;92.80
27413;DHT22;14871;52.702;5.230;2022-09-20T00:41:25;16.00;92.80
27413;DHT22;14871;52.702;5.230;2022-09-20T00:43:51;16.00;92.90
27413;DHT22;14871;52.702;5.230;2022-09-20T00:46:36;15.90;93.30
27413;DHT22;14871;52.702;5.230;2022-09-20T00:51:38;15.90;93.30
27413;DHT22;14871;52.702;5.230;2022-09-20T00:54:06;15.90;93.40
27413;DHT22;14871;52.702;5.230;2022-09-20T00:56:35;16.00;93.30
27413;DHT22;14871;52.702;5.230;2022-09-20T00:59:20;16.10;93.40
27413;DHT22;14871;52.702;5.230;2022-09-20T01:02:23;16.10;93.40
27413;DHT22;14871;52.702;5.230;2022-09-20T01:04:41;16.10;93.30
27413;DHT22;14871;52.702;5.230;2022-09-20T01:07:10;16.10;93.40
27413;DHT22;14871;52.702;5.230;2022-09-20T01:09:37;16.10;93.30
27413;DHT22;14871;52.702;5.230;2022-09-20T01:12:05;16.10;93.40
27413;DHT22;14871;52.702;5.230;2022-09-20T01:14:32;16.10;93.20
27413;DHT22;14871;52.702;5.230;2022-09-20T01:17:02;16.00;93.40
27413;DHT22;14871;52.702;5.230;2022-09-20T01:23:18;16.00;93.40
27413;DHT22;14871;52.702;5.230;2022-09-20T01:28:06;15.90;93.50
27413;DHT22;14871;52.702;5.230;2022-09-20T01:30:44;15.90;93.40
27413;DHT22;14871;52.702;5.230;2022-09-20T01:33:30;15.80;93.40
27413;DHT22;14871;52.702;5.230;2022-09-20T01:36:00;15.70;93.50
27413;DHT22;14871;52.702;5.230;2022-09-20T01:38:46;15.70;93.30
27413;DHT22;14871;52.702;5.230;2022-09-20T01:41:21;15.60;93.50
27413;DHT22;14871;52.702;5.230;2022-09-20T01:43:57;15.60;93.60
27413;DHT22;14871;52.702;5.230;2022-09-20T01:46:31;15.50;93.60
27413;DHT22;14871;52.702;5.230;2022-09-20T02:11:09;15.10;94.30
27413;DHT22;14871;52.702;5.230;2022-09-20T02:30:15;15.00;94.60
27413;DHT22;14871;52.702;5.230;2022-09-20T02:38:35;14.90;94.70
27413;DHT22;14871;52.702;5.230;2022-09-20T02:41:40;14.90;94.70
27413;DHT22;14871;52.702;5.230;2022-09-20T02:46:59;14.70;95.00
27413;DHT22;14871;52.702;5.230;2022-09-20T02:55:20;14.70;95.50
27413;DHT22;14871;52.702;5.230;2022-09-20T02:58:32;14.80;95.60
27413;DHT22;14871;52.702;5.230;2022-09-20T03:04:22;14.90;96.20
27413;DHT22;14871;52.702;5.230;2022-09-20T03:09:34;15.00;95.90
27413;DHT22;14871;52.702;5.230;2022-09-20T03:26:15;15.20;96.30
27413;DHT22;14871;52.702;5.230;2022-09-20T03:29:11;15.20;96.50
27413;DHT22;14871;52.702;5.230;2022-09-20T03:37:36;15.20;96.30
27413;DHT22;14871;52.702;5.230;2022-09-20T03:42:51;15.20;96.70
27413;DHT22;14871;52.702;5.230;2022-09-20T03:48:05;15.20;96.60
27413;DHT22;14871;52.702;5.230;2022-09-20T03:59:25;15.10;96.60
27413;DHT22;14871;52.702;5.230;2022-09-20T04:04:43;15.20;96.70
27413;DHT22;14871;52.702;5.230;2022-09-20T04:07:20;15.20;96.80
27413;DHT22;14871;52.702;5.230;2022-09-20T04:21:15;15.20;97.00
27413;DHT22;14871;52.702;5.230;2022-09-20T04:23:54;15.20;97.10
27413;DHT22;14871;52.702;5.230;2022-09-20T04:26:29;15.10;97.20
27413;DHT22;14871;52.702;5.230;2022-09-20T04:29:40;15.10;97.20
27413;DHT22;14871;52.702;5.230;2022-09-20T04:31:52;14.90;97.70
27413;DHT22;14871;52.702;5.230;2022-09-20T04:34:29;15.00;97.90
27413;DHT22;14871;52.702;5.230;2022-09-20T04:37:30;15.10;97.90
27413;DHT22;14871;52.702;5.230;2022-09-20T04:40:22;15.20;98.10
27413;DHT22;14871;52.702;5.230;2022-09-20T04:48:50;15.30;98.90
27413;DHT22;14871;52.702;5.230;2022-09-20T05:04:56;15.20;99.20
27413;DHT22;14871;52.702;5.230;2022-09-20T05:07:38;15.20;99.00
27413;DHT22;14871;52.702;5.230;2022-09-20T05:10:29;15.20;99.00
27413;DHT22;14871;52.702;5.230;2022-09-20T05:32:29;15.10;96.80
27413;DHT22;14871;52.702;5.230;2022-09-20T05:35:22;15.10;96.70
27413;DHT22;14871;52.702;5.230;2022-09-20T05:40:39;15.20;97.00
27413;DHT22;14871;52.702;5.230;2022-09-20T05:43:32;15.10;97.20
27413;DHT22;14871;52.702;5.230;2022-09-20T05:46:16;15.10;97.40
27413;DHT22;14871;52.702;5.230;2022-09-20T05:48:56;15.20;97.40
27413;DHT22;14871;52.702;5.230;2022-09-20T06:02:31;15.20;97.70
27413;DHT22;14871;52.702;5.230;2022-09-20T06:11:13;15.30;98.10
27413;DHT22;14871;52.702;5.230;2022-09-20T06:13:53;15.30;98.20
27413;DHT22;14871;52.702;5.230;2022-09-20T06:22:04;15.30;99.20
27413;DHT22;14871;52.702;5.230;2022-09-20T06:24:58;15.30;99.40
27413;DHT22;14871;52.702;5.230;2022-09-20T06:27:40;15.20;99.80
27413;DHT22;14871;52.702;5.230;2022-09-20T06:30:17;15.30;99.90
27413;DHT22;14871;52.702;5.230;2022-09-20T06:33:00;15.30;99.90
27413;DHT22;14871;52.702;5.230;2022-09-20T06:35:56;15.30;99.90
27413;DHT22;14871;52.702;5.230;2022-09-20T06:41:19;15.30;99.90
27413;DHT22;14871;52.702;5.230;2022-09-20T06:43:56;15.30;99.90
27413;DHT22;14871;52.702;5.230;2022-09-20T06:46:33;15.40;99.90
27413;DHT22;14871;52.702;5.230;2022-09-20T06:48:59;15.40;99.90
27413;DHT22;14871;52.702;5.230;2022-09-20T06:51:26;15.40;99.90
27413;DHT22;14871;52.702;5.230;2022-09-20T06:53:54;15.50;99.90
27413;DHT22;14871;52.702;5.230;2022-09-20T06:56:23;15.50;99.90
27413;DHT22;14871;52.702;5.230;2022-09-20T06:58:50;15.50;99.90
27413;DHT22;14871;52.702;5.230;2022-09-20T07:01:17;15.50;99.90
27413;DHT22;14871;52.702;5.230;2022-09-20T07:03:43;15.40;99.90
27413;DHT22;14871;52.702;5.230;2022-09-20T07:06:10;15.50;99.90
27413;DHT22;14871;52.702;5.230;2022-09-20T07:08:35;15.50;99.90
27413;DHT22;14871;52.702;5.230;2022-09-20T07:11:14;15.50;99.90
27413;DHT22;14871;52.702;5.230;2022-09-20T07:13:44;15.50;99.90
27413;DHT22;14871;52.702;5.230;2022-09-20T07:16:12;15.50;99.90
27413;DHT22;14871;52.702;5.230;2022-09-20T07:18:40;15.60;99.90
27413;DHT22;14871;52.702;5.230;2022-09-20T07:21:11;15.70;99.90
27413;DHT22;14871;52.702;5.230;2022-09-20T07:23:37;15.70;99.90
27413;DHT22;14871;52.702;5.230;2022-09-20T07:26:03;15.70;99.90
27413;DHT22;14871;52.702;5.230;2022-09-20T07:28:31;15.80;99.90
27413;DHT22;14871;52.702;5.230;2022-09-20T07:30:57;15.80;99.90
27413;DHT22;14871;52.702;5.230;2022-09-20T07:33:22;15.70;99.90
27413;DHT22;14871;52.702;5.230;2022-09-20T07:35:50;15.70;99.90
27413;DHT22;14871;52.702;5.230;2022-09-20T07:38:21;15.80;99.90
27413;DHT22;14871;52.702;5.230;2022-09-20T07:40:57;15.80;99.90
27413;DHT22;14871;52.702;5.230;2022-09-20T07:43:25;16.00;99.90
27413;DHT22;14871;52.702;5.230;2022-09-20T07:45:52;16.20;99.90
27413;DHT22;14871;52.702;5.230;2022-09-20T07:48:21;16.30;99.90
27413;DHT22;14871;52.702;5.230;2022-09-20T07:50:51;16.30;99.90
27413;DHT22;14871;52.702;5.230;2022-09-20T07:53:17;16.20;99.90
27413;DHT22;14871;52.702;5.230;2022-09-20T07:55:42;16.10;99.90
27413;DHT22;14871;52.702;5.230;2022-09-20T07:58:08;16.10;99.90
27413;DHT22;14871;52.702;5.230;2022-09-20T08:00:33;16.10;99.90
27413;DHT22;14871;52.702;5.230;2022-09-20T08:02:59;16.00;99.90
27413;DHT22;14871;52.702;5.230;2022-09-20T08:05:25;16.10;99.90
27413;DHT22;14871;52.702;5.230;2022-09-20T08:07:51;16.10;99.90
27413;DHT22;14871;52.702;5.230;2022-09-20T08:10:17;16.10;99.90
27413;DHT22;14871;52.702;5.230;2022-09-20T08:12:43;16.10;99.90
27413;DHT22;14871;52.702;5.230;2022-09-20T08:15:09;16.20;99.90
27413;DHT22;14871;52.702;5.230;2022-09-20T08:17:35;16.20;99.90
27413;DHT22;14871;52.702;5.230;2022-09-20T08:20:01;16.20;99.90
27413;DHT22;14871;52.702;5.230;2022-09-20T08:22:26;16.20;99.90
27413;DHT22;14871;52.702;5.230;2022-09-20T08:24:52;16.40;99.90
27413;DHT22;14871;52.702;5.230;2022-09-20T08:27:18;16.40;99.90
27413;DHT22;14871;52.702;5.230;2022-09-20T08:29:44;16.30;99.90
27413;DHT22;14871;52.702;5.230;2022-09-20T08:32:09;16.40;99.90
27413;DHT22;14871;52.702;5.230;2022-09-20T08:34:35;16.50;99.90
27413;DHT22;14871;52.702;5.230;2022-09-20T08:37:01;16.40;99.90
27413;DHT22;14871;52.702;5.230;2022-09-20T08:39:27;16.40;99.90
27413;DHT22;14871;52.702;5.230;2022-09-20T08:42:08;16.50;99.90
27413;DHT22;14871;52.702;5.230;2022-09-20T08:44:48;16.60;99.90
27413;DHT22;14871;52.702;5.230;2022-09-20T08:47:22;16.80;99.90
27413;DHT22;14871;52.702;5.230;2022-09-20T08:49:50;17.00;99.90
27413;DHT22;14871;52.702;5.230;2022-09-20T08:52:24;17.00;99.90
27413;DHT22;14871;52.702;5.230;2022-09-20T08:54:50;17.00;99.90
27413;DHT22;14871;52.702;5.230;2022-09-20T08:57:17;17.00;99.90
27413;DHT22;14871;52.702;5.230;2022-09-20T08:59:44;17.10;99.90
27413;DHT22;14871;52.702;5.230;2022-09-20T09:02:20;17.10;99.90
27413;DHT22;14871;52.702;5.230;2022-09-20T09:04:48;17.10;99.90
27413;DHT22;14871;52.702;5.230;2022-09-20T09:07:17;17.20;99.90
27413;DHT22;14871;52.702;5.230;2022-09-20T09:09:47;17.20;99.90
27413;DHT22;14871;52.702;5.230;2022-09-20T09:12:26;17.40;99.90
27413;DHT22;14871;52.702;5.230;2022-09-20T09:14:57;17.50;99.80
27413;DHT22;14871;52.702;5.230;2022-09-20T09:17:28;17.70;99.50
27413;DHT22;14871;52.702;5.230;2022-09-20T09:20:03;18.00;99.40
27413;DHT22;14871;52.702;5.230;2022-09-20T09:22:40;18.30;98.30
27413;DHT22;14871;52.702;5.230;2022-09-20T09:25:21;18.30;97.40
27413;DHT22;14871;52.702;5.230;2022-09-20T09:30:39;18.60;96.40
27413;DHT22;14871;52.702;5.230;2022-09-20T09:33:16;18.50;96.20
27413;DHT22;14871;52.702;5.230;2022-09-20T09:35:42;18.50;96.20
27413;DHT22;14871;52.702;5.230;2022-09-20T09:38:17;18.40;96.20
27413;DHT22;14871;52.702;5.230;2022-09-20T09:40:58;18.50;96.00
27413;DHT22;14871;52.702;5.230;2022-09-20T09:43:27;18.50;95.10
27413;DHT22;14871;52.702;5.230;2022-09-20T09:45:55;18.50;95.50
27413;DHT22;14871;52.702;5.230;2022-09-20T09:48:25;18.60;95.90
27413;DHT22;14871;52.702;5.230;2022-09-20T09:51:14;18.50;95.30
27413;DHT22;14871;52.702;5.230;2022-09-20T09:53:41;18.50;95.00
27413;DHT22;14871;52.702;5.230;2022-09-20T09:59:18;18.50;94.80
27413;DHT22;14871;52.702;5.230;2022-09-20T10:15:24;18.50;94.50
27413;DHT22;14871;52.702;5.230;2022-09-20T10:18:13;18.50;95.50
27413;DHT22;14871;52.702;5.230;2022-09-20T10:21:17;18.70;94.90
27413;DHT22;14871;52.702;5.230;2022-09-20T10:40:44;18.80;95.20
27413;DHT22;14871;52.702;5.230;2022-09-20T10:44:03;18.90;95.20
27413;DHT22;14871;52.702;5.230;2022-09-20T10:54:33;18.90;93.30
27413;DHT22;14871;52.702;5.230;2022-09-20T11:00:16;19.10;92.40
27413;DHT22;14871;52.702;5.230;2022-09-20T11:08:08;19.60;92.00
27413;DHT22;14871;52.702;5.230;2022-09-20T11:10:46;19.90;92.30
27413;DHT22;14871;52.702;5.230;2022-09-20T11:16:15;20.20;91.70
27413;DHT22;14871;52.702;5.230;2022-09-20T11:19:00;20.30;91.00
27413;DHT22;14871;52.702;5.230;2022-09-20T11:21:43;20.30;90.50
27413;DHT22;14871;52.702;5.230;2022-09-20T11:32:13;20.20;91.00
27413;DHT22;14871;52.702;5.230;2022-09-20T11:34:52;20.20;90.70
27413;DHT22;14871;52.702;5.230;2022-09-20T11:37:21;20.10;90.60
27413;DHT22;14871;52.702;5.230;2022-09-20T11:39:55;20.10;90.80
27413;DHT22;14871;52.702;5.230;2022-09-20T11:42:30;20.10;90.60
27413;DHT22;14871;52.702;5.230;2022-09-20T11:44:57;20.20;91.00
27413;DHT22;14871;52.702;5.230;2022-09-20T11:47:39;20.20;91.00
27413;DHT22;14871;52.702;5.230;2022-09-20T11:56:06;20.50;88.40
27413;DHT22;14871;52.702;5.230;2022-09-20T11:58:46;20.40;87.80
27413;DHT22;14871;52.702;5.230;2022-09-20T12:01:15;20.40;89.60
27413;DHT22;14871;52.702;5.230;2022-09-20T12:03:43;20.50;90.10
27413;DHT22;14871;52.702;5.230;2022-09-20T12:08:51;20.60;89.00
27413;DHT22;14871;52.702;5.230;2022-09-20T12:11:31;20.70;87.70
27413;DHT22;14871;52.702;5.230;2022-09-20T12:14:45;20.80;87.80
27413;DHT22;14871;52.702;5.230;2022-09-20T12:16:52;20.90;88.10
27413;DHT22;14871;52.702;5.230;2022-09-20T12:24:34;21.30;87.60
27413;DHT22;14871;52.702;5.230;2022-09-20T12:27:19;21.30;87.40
27413;DHT22;14871;52.702;5.230;2022-09-20T12:41:09;21.90;81.10
27413;DHT22;14871;52.702;5.230;2022-09-20T12:44:00;21.80;81.40
27413;DHT22;14871;52.702;5.230;2022-09-20T12:55:41;22.00;79.70
27413;DHT22;14871;52.702;5.230;2022-09-20T13:09:06;22.70;79.60
27413;DHT22;14871;52.702;5.230;2022-09-20T13:11:51;22.80;77.50
27413;DHT22;14871;52.702;5.230;2022-09-20T13:17:03;22.50;76.70
27413;DHT22;14871;52.702;5.230;2022-09-20T13:19:44;22.50;76.20
27413;DHT22;14871;52.702;5.230;2022-09-20T13:22:26;22.30;75.60
27413;DHT22;14871;52.702;5.230;2022-09-20T13:24:56;22.10;76.80
27413;DHT22;14871;52.702;5.230;2022-09-20T13:27:29;22.10;76.50
27413;DHT22;14871;52.702;5.230;2022-09-20T13:32:34;22.20;77.60
27413;DHT22;14871;52.702;5.230;2022-09-20T13:37:36;22.30;75.70
27413;DHT22;14871;52.702;5.230;2022-09-20T13:40:03;22.50;75.90
27413;DHT22;14871;52.702;5.230;2022-09-20T13:42:31;22.80;75.70
27413;DHT22;14871;52.702;5.230;2022-09-20T13:45:01;23.10;74.60
27413;DHT22;14871;52.702;5.230;2022-09-20T13:47:30;23.40;73.70
27413;DHT22;14871;52.702;5.230;2022-09-20T13:50:22;23.80;72.40
27413;DHT22;14871;52.702;5.230;2022-09-20T13:52:57;24.00;71.20
27413;DHT22;14871;52.702;5.230;2022-09-20T13:55:37;24.10;69.70
27413;DHT22;14871;52.702;5.230;2022-09-20T13:58:20;24.20;71.10
27413;DHT22;14871;52.702;5.230;2022-09-20T14:00:53;24.20;69.20
27413;DHT22;14871;52.702;5.230;2022-09-20T14:03:20;24.30;70.50
27413;DHT22;14871;52.702;5.230;2022-09-20T14:05:52;24.40;70.00
27413;DHT22;14871;52.702;5.230;2022-09-20T14:10:47;24.30;70.30
27413;DHT22;14871;52.702;5.230;2022-09-20T14:13:15;24.20;70.60
27413;DHT22;14871;52.702;5.230;2022-09-20T14:15:44;24.00;71.80
27413;DHT22;14871;52.702;5.230;2022-09-20T14:18:16;24.00;71.50
27413;DHT22;14871;52.702;5.230;2022-09-20T14:20:44;24.00;72.10
27413;DHT22;14871;52.702;5.230;2022-09-20T14:23:26;24.20;71.90
27413;DHT22;14871;52.702;5.230;2022-09-20T14:26:27;24.40;70.00
27413;DHT22;14871;52.702;5.230;2022-09-20T14:28:51;24.40;70.20
27413;DHT22;14871;52.702;5.230;2022-09-20T14:31:27;24.50;70.50
27413;DHT22;14871;52.702;5.230;2022-09-20T14:33:57;24.50;70.10
27413;DHT22;14871;52.702;5.230;2022-09-20T14:36:26;24.50;70.10
27413;DHT22;14871;52.702;5.230;2022-09-20T14:39:01;24.60;70.10
27413;DHT22;14871;52.702;5.230;2022-09-20T14:41:36;24.50;69.80
27413;DHT22;14871;52.702;5.230;2022-09-20T14:44:06;24.50;68.80
27413;DHT22;14871;52.702;5.230;2022-09-20T14:46:39;24.50;68.70
27413;DHT22;14871;52.702;5.230;2022-09-20T14:51:46;24.80;69.50
27413;DHT22;14871;52.702;5.230;2022-09-20T14:56:47;24.80;69.00
27413;DHT22;14871;52.702;5.230;2022-09-20T15:01:41;24.90;69.40
27413;DHT22;14871;52.702;5.230;2022-09-20T15:04:18;24.80;69.10
27413;DHT22;14871;52.702;5.230;2022-09-20T15:06:45;24.90;69.00
27413;DHT22;14871;52.702;5.230;2022-09-20T15:09:13;25.00;68.10
27413;DHT22;14871;52.702;5.230;2022-09-20T15:11:39;25.00;67.60
27413;DHT22;14871;52.702;5.230;2022-09-20T15:14:05;24.90;68.40
27413;DHT22;14871;52.702;5.230;2022-09-20T15:16:31;24.90;68.20
27413;DHT22;14871;52.702;5.230;2022-09-20T15:18:58;24.70;68.70
27413;DHT22;14871;52.702;5.230;2022-09-20T15:21:24;24.70;69.20
27413;DHT22;14871;52.702;5.230;2022-09-20T15:23:50;24.70;68.70
27413;DHT22;14871;52.702;5.230;2022-09-20T15:26:19;24.60;68.10
27413;DHT22;14871;52.702;5.230;2022-09-20T15:28:45;24.60;68.00
27413;DHT22;14871;52.702;5.230;2022-09-20T15:31:11;24.60;68.40
27413;DHT22;14871;52.702;5.230;2022-09-20T15:33:39;24.40;69.40
27413;DHT22;14871;52.702;5.230;2022-09-20T15:36:05;24.30;69.10
27413;DHT22;14871;52.702;5.230;2022-09-20T15:38:31;24.30;69.40
27413;DHT22;14871;52.702;5.230;2022-09-20T15:40:59;24.20;69.50
27413;DHT22;14871;52.702;5.230;2022-09-20T15:43:25;24.10;69.60
27413;DHT22;14871;52.702;5.230;2022-09-20T15:45:56;24.20;69.50
27413;DHT22;14871;52.702;5.230;2022-09-20T15:48:26;24.00;69.20
27413;DHT22;14871;52.702;5.230;2022-09-20T15:51:06;24.00;69.30
27413;DHT22;14871;52.702;5.230;2022-09-20T15:53:35;23.90;68.80
27413;DHT22;14871;52.702;5.230;2022-09-20T15:56:03;23.60;70.40
27413;DHT22;14871;52.702;5.230;2022-09-20T15:58:31;23.50;70.60
27413;DHT22;14871;52.702;5.230;2022-09-20T16:01:05;23.50;71.40
27413;DHT22;14871;52.702;5.230;2022-09-20T16:03:31;23.50;71.30
27413;DHT22;14871;52.702;5.230;2022-09-20T16:06:02;23.50;70.50
27413;DHT22;14871;52.702;5.230;2022-09-20T16:08:36;23.40;70.90
27413;DHT22;14871;52.702;5.230;2022-09-20T16:11:03;23.40;71.70
27413;DHT22;14871;52.702;5.230;2022-09-20T16:13:29;23.40;71.00
27413;DHT22;14871;52.702;5.230;2022-09-20T16:15:55;23.50;71.20
27413;DHT22;14871;52.702;5.230;2022-09-20T16:18:21;23.40;71.00
27413;DHT22;14871;52.702;5.230;2022-09-20T16:21:10;23.30;70.60
27413;DHT22;14871;52.702;5.230;2022-09-20T16:23:41;23.30;72.00
27413;DHT22;14871;52.702;5.230;2022-09-20T16:26:08;23.20;71.90
27413;DHT22;14871;52.702;5.230;2022-09-20T16:28:41;23.00;72.20
27413;DHT22;14871;52.702;5.230;2022-09-20T16:31:27;23.00;72.00
27413;DHT22;14871;52.702;5.230;2022-09-20T16:33:53;22.90;71.30
27413;DHT22;14871;52.702;5.230;2022-09-20T16:36:19;22.90;72.00
27413;DHT22;14871;52.702;5.230;2022-09-20T16:38:45;22.80;72.30
27413;DHT22;14871;52.702;5.230;2022-09-20T16:41:10;22.70;73.20
27413;DHT22;14871;52.702;5.230;2022-09-20T16:43:36;22.70;73.40
27413;DHT22;14871;52.702;5.230;2022-09-20T16:46:02;22.50;72.80
27413;DHT22;14871;52.702;5.230;2022-09-20T16:48:29;22.40;73.60
27413;DHT22;14871;52.702;5.230;2022-09-20T16:50:56;22.30;73.70
27413;DHT22;14871;52.702;5.230;2022-09-20T16:53:24;22.20;74.20
27413;DHT22;14871;52.702;5.230;2022-09-20T16:55:50;22.10;74.90
27413;DHT22;14871;52.702;5.230;2022-09-20T16:58:19;22.00;75.10
27413;DHT22;14871;52.702;5.230;2022-09-20T17:00:48;21.90;75.70
27413;DHT22;14871;52.702;5.230;2022-09-20T17:03:14;21.70;75.70
27413;DHT22;14871;52.702;5.230;2022-09-20T17:05:40;21.60;76.50
27413;DHT22;14871;52.702;5.230;2022-09-20T17:08:06;21.50;77.30
27413;DHT22;14871;52.702;5.230;2022-09-20T17:10:33;21.40;77.40
27413;DHT22;14871;52.702;5.230;2022-09-20T17:12:59;21.30;78.30
27413;DHT22;14871;52.702;5.230;2022-09-20T17:15:24;21.20;78.80
27413;DHT22;14871;52.702;5.230;2022-09-20T17:17:50;21.20;78.80
27413;DHT22;14871;52.702;5.230;2022-09-20T17:20:15;21.10;78.90
27413;DHT22;14871;52.702;5.230;2022-09-20T17:22:41;21.00;79.20
27413;DHT22;14871;52.702;5.230;2022-09-20T17:25:07;20.90;79.70
27413;DHT22;14871;52.702;5.230;2022-09-20T17:27:33;20.80;80.00
27413;DHT22;14871;52.702;5.230;2022-09-20T17:29:58;20.80;80.60
27413;DHT22;14871;52.702;5.230;2022-09-20T17:32:24;20.70;80.60
27413;DHT22;14871;52.702;5.230;2022-09-20T17:34:49;20.60;81.00
27413;DHT22;14871;52.702;5.230;2022-09-20T17:37:15;20.50;81.40
27413;DHT22;14871;52.702;5.230;2022-09-20T17:39:40;20.50;81.90
27413;DHT22;14871;52.702;5.230;2022-09-20T17:42:06;20.40;82.10
27413;DHT22;14871;52.702;5.230;2022-09-20T17:44:32;20.30;82.10
27413;DHT22;14871;52.702;5.230;2022-09-20T17:47:02;20.20;82.40
27413;DHT22;14871;52.702;5.230;2022-09-20T17:49:27;20.20;82.80
27413;DHT22;14871;52.702;5.230;2022-09-20T17:51:55;20.10;83.00
27413;DHT22;14871;52.702;5.230;2022-09-20T17:54:21;20.00;83.00
27413;DHT22;14871;52.702;5.230;2022-09-20T17:56:49;20.00;83.30
27413;DHT22;14871;52.702;5.230;2022-09-20T17:59:16;19.90;83.20
27413;DHT22;14871;52.702;5.230;2022-09-20T18:01:44;19.90;83.60
27413;DHT22;14871;52.702;5.230;2022-09-20T18:04:11;19.80;83.40
27413;DHT22;14871;52.702;5.230;2022-09-20T18:06:50;19.70;83.50
27413;DHT22;14871;52.702;5.230;2022-09-20T18:09:18;19.60;84.20
27413;DHT22;14871;52.702;5.230;2022-09-20T18:11:46;19.50;84.90
27413;DHT22;14871;52.702;5.230;2022-09-20T18:14:15;19.40;85.00
27413;DHT22;14871;52.702;5.230;2022-09-20T18:16:41;19.40;85.40
27413;DHT22;14871;52.702;5.230;2022-09-20T18:19:09;19.30;85.80
27413;DHT22;14871;52.702;5.230;2022-09-20T18:21:36;19.30;86.30
27413;DHT22;14871;52.702;5.230;2022-09-20T18:24:07;19.20;86.50
27413;DHT22;14871;52.702;5.230;2022-09-20T18:26:34;19.30;86.80
27413;DHT22;14871;52.702;5.230;2022-09-20T18:31:32;19.10;86.60
27413;DHT22;14871;52.702;5.230;2022-09-20T18:34:01;19.10;86.70
27413;DHT22;14871;52.702;5.230;2022-09-20T18:36:28;19.00;86.90
27413;DHT22;14871;52.702;5.230;2022-09-20T18:38:55;19.00;86.70
27413;DHT22;14871;52.702;5.230;2022-09-20T18:41:26;18.90;86.70
27413;DHT22;14871;52.702;5.230;2022-09-20T18:43:53;18.90;87.30
27413;DHT22;14871;52.702;5.230;2022-09-20T18:46:19;18.90;87.60
27413;DHT22;14871;52.702;5.230;2022-09-20T18:48:50;18.90;87.90
27413;DHT22;14871;52.702;5.230;2022-09-20T18:51:16;18.90;88.40
27413;DHT22;14871;52.702;5.230;2022-09-20T18:53:42;19.00;88.60
27413;DHT22;14871;52.702;5.230;2022-09-20T18:56:27;19.00;88.70
27413;DHT22;14871;52.702;5.230;2022-09-20T18:58:54;19.00;88.90
27413;DHT22;14871;52.702;5.230;2022-09-20T19:01:34;18.90;89.70
27413;DHT22;14871;52.702;5.230;2022-09-20T19:07:23;19.00;89.70
27413;DHT22;14871;52.702;5.230;2022-09-20T19:16:13;18.80;90.10
27413;DHT22;14871;52.702;5.230;2022-09-20T19:21:05;18.70;90.40
27413;DHT22;14871;52.702;5.230;2022-09-20T19:24:01;18.60;90.30
27413;DHT22;14871;52.702;5.230;2022-09-20T19:26:32;18.50;90.50
27413;DHT22;14871;52.702;5.230;2022-09-20T19:29:02;18.50;90.60
27413;DHT22;14871;52.702;5.230;2022-09-20T19:31:32;18.50;90.80
27413;DHT22;14871;52.702;5.230;2022-09-20T19:34:00;18.50;90.80
27413;DHT22;14871;52.702;5.230;2022-09-20T19:48:20;18.40;91.20
27413;DHT22;14871;52.702;5.230;2022-09-20T19:50:53;18.30;91.30
27413;DHT22;14871;52.702;5.230;2022-09-20T19:53:20;18.30;91.40
27413;DHT22;14871;52.702;5.230;2022-09-20T19:55:57;18.20;91.80
27413;DHT22;14871;52.702;5.230;2022-09-20T19:58:24;18.20;91.40
27413;DHT22;14871;52.702;5.230;2022-09-20T20:00:50;18.10;91.50
27413;DHT22;14871;52.702;5.230;2022-09-20T20:03:17;18.10;91.50
27413;DHT22;14871;52.702;5.230;2022-09-20T20:06:09;18.00;91.50
27413;DHT22;14871;52.702;5.230;2022-09-20T20:08:45;17.90;91.50
27413;DHT22;14871;52.702;5.230;2022-09-20T20:17:14;17.80;91.80
27413;DHT22;14871;52.702;5.230;2022-09-20T20:22:59;17.60;92.00
27413;DHT22;14871;52.702;5.230;2022-09-20T20:25:49;17.60;92.10
27413;DHT22;14871;52.702;5.230;2022-09-20T20:28:16;17.50;92.20
27413;DHT22;14871;52.702;5.230;2022-09-20T20:30:41;17.50;92.30
27413;DHT22;14871;52.702;5.230;2022-09-20T20:33:13;17.40;92.40
27413;DHT22;14871;52.702;5.230;2022-09-20T20:35:39;17.40;92.40
27413;DHT22;14871;52.702;5.230;2022-09-20T20:38:04;17.30;92.50
27413;DHT22;14871;52.702;5.230;2022-09-20T20:40:37;17.30;92.60
27413;DHT22;14871;52.702;5.230;2022-09-20T20:43:02;17.20;92.70
27413;DHT22;14871;52.702;5.230;2022-09-20T20:45:30;17.20;92.70
27413;DHT22;14871;52.702;5.230;2022-09-20T20:47:57;17.20;92.90
27413;DHT22;14871;52.702;5.230;2022-09-20T20:50:26;17.20;93.00
27413;DHT22;14871;52.702;5.230;2022-09-20T20:52:53;17.20;93.00
27413;DHT22;14871;52.702;5.230;2022-09-20T20:55:20;17.20;93.10
27413;DHT22;14871;52.702;5.230;2022-09-20T20:57:55;17.10;93.10
27413;DHT22;14871;52.702;5.230;2022-09-20T21:00:26;17.20;93.20
27413;DHT22;14871;52.702;5.230;2022-09-20T21:02:59;17.10;93.30
27413;DHT22;14871;52.702;5.230;2022-09-20T21:05:26;17.20;93.20
27413;DHT22;14871;52.702;5.230;2022-09-20T21:07:52;17.20;93.20
27413;DHT22;14871;52.702;5.230;2022-09-20T21:10:18;17.20;93.70
27413;DHT22;14871;52.702;5.230;2022-09-20T21:12:44;17.20;93.20
27413;DHT22;14871;52.702;5.230;2022-09-20T21:15:10;17.20;93.20
27413;DHT22;14871;52.702;5.230;2022-09-20T21:17:36;17.20;93.20
27413;DHT22;14871;52.702;5.230;2022-09-20T21:20:02;17.20;93.20
27413;DHT22;14871;52.702;5.230;2022-09-20T21:22:28;17.20;93.20
27413;DHT22;14871;52.702;5.230;2022-09-20T21:24:54;17.30;93.30
27413;DHT22;14871;52.702;5.230;2022-09-20T21:27:19;17.20;93.50
27413;DHT22;14871;52.702;5.230;2022-09-20T21:29:45;17.20;93.60
27413;DHT22;14871;52.702;5.230;2022-09-20T21:32:11;17.20;93.80
27413;DHT22;14871;52.702;5.230;2022-09-20T21:34:37;17.20;93.80
27413;DHT22;14871;52.702;5.230;2022-09-20T21:37:03;17.20;93.90
27413;DHT22;14871;52.702;5.230;2022-09-20T21:39:28;17.20;94.00
27413;DHT22;14871;52.702;5.230;2022-09-20T21:41:54;17.20;94.10
27413;DHT22;14871;52.702;5.230;2022-09-20T21:44:21;17.20;94.20